Time;durP1;ratioP1;P1;durP2;ratioP2;P2;SDS_P1;SDS_P2;PMS_P1;PMS_P2;Temp;Humidity;BMP_temperature;BMP_pressure;BME280_temperature;BME280_humidity;BME280_pressure;Samples;Min_cycle;Max_cycle;Signal;HPM_P1;HPM_P2
2022/03/23 00:02:26;;;;;;;10.20;3.35;;;;;;;18.74;23.42;100676.16;5036501;28;20088;-75
2022/03/23 00:04:54;;;;;;;7.45;4.43;;;;;;;18.74;23.44;100676.16;5046883;28;20014;-72
2022/03/23 00:07:20;;;;;;;7.35;3.22;;;;;;;18.75;23.40;100672.47;5046725;28;20025;-75
2022/03/23 00:09:46;;;;;;;6.95;3.20;;;;;;;18.72;23.49;100667.41;5046755;28;20029;-75
2022/03/23 00:12:12;;;;;;;8.43;3.15;;;;;;;18.73;23.30;100658.38;5043357;28;20025;-75
2022/03/23 00:14:37;;;;;;;5.13;2.60;;;;;;;18.74;23.31;100652.88;5034462;28;20026;-73
2022/03/23 00:17:04;;;;;;;8.10;2.92;;;;;;;18.76;23.28;100653.56;5048205;28;20021;-75
2022/03/23 00:19:29;;;;;;;7.63;2.53;;;;;;;18.78;23.30;100658.75;5022376;28;20079;-74
2022/03/23 00:21:55;;;;;;;7.78;2.78;;;;;;;18.80;23.21;100658.63;5047666;28;20089;-75
2022/03/23 00:24:20;;;;;;;4.88;2.80;;;;;;;18.80;23.26;100648.75;5035147;28;20014;-73
2022/03/23 00:26:46;;;;;;;5.22;2.92;;;;;;;18.81;23.14;100647.75;5010771;28;20054;-73
2022/03/23 00:29:11;;;;;;;6.43;2.92;;;;;;;19.06;22.75;100654.31;5024982;28;20025;-72
2022/03/23 00:31:37;;;;;;;4.32;2.70;;;;;;;19.33;22.80;100643.72;5029689;28;20041;-71
2022/03/23 00:34:02;;;;;;;6.20;3.20;;;;;;;19.57;22.27;100642.28;5030107;28;20033;-72
2022/03/23 00:36:28;;;;;;;6.20;2.67;;;;;;;19.74;22.21;100646.81;5031759;28;20033;-74
2022/03/23 00:38:53;;;;;;;7.28;2.95;;;;;;;19.90;22.05;100653.34;5030189;28;20029;-72
2022/03/23 00:41:20;;;;;;;4.65;2.88;;;;;;;20.01;22.00;100642.38;5031760;28;20084;-73
2022/03/23 00:43:46;;;;;;;8.88;2.80;;;;;;;20.11;21.89;100645.78;5050196;28;20036;-73
2022/03/23 00:46:11;;;;;;;4.68;3.10;;;;;;;20.21;21.93;100634.97;5049745;28;20222;-74
2022/03/23 00:48:37;;;;;;;4.57;2.33;;;;;;;20.29;22.01;100634.16;5035402;28;20014;-73
2022/03/23 00:51:02;;;;;;;9.35;3.28;;;;;;;20.35;22.16;100635.38;5041711;28;20270;-73
2022/03/23 00:53:28;;;;;;;5.43;2.60;;;;;;;20.41;21.96;100632.91;5029013;28;20038;-73
2022/03/23 00:55:55;;;;;;;6.60;2.72;;;;;;;20.47;21.96;100627.91;5043152;28;20022;-74
2022/03/23 00:58:20;;;;;;;4.32;2.53;;;;;;;20.51;21.94;100631.97;5049890;28;20226;-71
2022/03/23 01:00:46;;;;;;;6.90;3.20;;;;;;;20.54;21.97;100624.41;5041475;28;20154;-70
2022/03/23 01:03:12;;;;;;;4.93;2.80;;;;;;;20.59;21.87;100622.06;5024686;28;20010;-70
2022/03/23 01:05:38;;;;;;;4.05;2.50;;;;;;;20.65;22.05;100635.88;5020337;28;20028;-68
2022/03/23 01:08:04;;;;;;;6.50;2.75;;;;;;;20.66;21.68;100627.66;5027937;28;20021;-69
2022/03/23 01:10:29;;;;;;;4.15;2.40;;;;;;;20.72;21.51;100634.25;5047460;28;20085;-72
2022/03/23 01:12:55;;;;;;;4.85;2.63;;;;;;;20.76;21.75;100634.81;5047221;28;20139;-70
2022/03/23 01:15:21;;;;;;;3.53;2.38;;;;;;;20.81;21.81;100635.16;5042877;28;20025;-70
2022/03/23 01:17:48;;;;;;;4.55;2.78;;;;;;;20.82;21.67;100635.00;5028685;28;20084;-75
2022/03/23 01:20:15;;;;;;;3.50;2.50;;;;;;;20.85;21.88;100623.06;5039087;28;20033;-72
2022/03/23 01:22:43;;;;;;;4.43;2.63;;;;;;;20.88;22.10;100623.56;5031590;28;20242;-70
2022/03/23 01:25:09;;;;;;;4.30;3.17;;;;;;;20.92;21.99;100629.50;5023143;28;20075;-70
2022/03/23 01:27:36;;;;;;;4.20;2.47;;;;;;;20.96;22.34;100624.63;5043506;28;20116;-71
2022/03/23 01:30:05;;;;;;;4.03;2.47;;;;;;;20.98;22.32;100619.94;5029232;28;20026;-71
2022/03/23 01:32:31;;;;;;;5.38;2.80;;;;;;;21.01;22.01;100616.94;5028144;28;20017;-70
2022/03/23 01:34:56;;;;;;;5.78;2.90;;;;;;;21.06;21.83;100619.13;5040376;28;20026;-67
2022/03/23 01:37:21;;;;;;;3.92;2.70;;;;;;;20.99;21.75;100606.31;5024513;28;20231;-73
2022/03/23 01:39:47;;;;;;;6.60;2.53;;;;;;;21.04;21.58;100614.75;5028965;28;20033;-73
2022/03/23 01:42:13;;;;;;;3.92;2.40;;;;;;;21.01;21.67;100615.06;5028806;28;20026;-73
2022/03/23 01:44:39;;;;;;;3.42;2.30;;;;;;;20.97;21.75;100608.31;5019372;28;20077;-72
2022/03/23 01:47:12;;;;;;;8.75;2.95;;;;;;;20.89;21.77;100611.00;5031601;28;20022;-71
2022/03/23 01:49:47;;;;;;;4.95;2.58;;;;;;;20.31;22.16;100617.88;5009298;28;20049;-68
2022/03/23 01:52:15;;;;;;;6.68;3.03;;;;;;;19.61;22.66;100611.44;5008735;28;20034;-74
2022/03/23 01:54:41;;;;;;;5.88;3.03;;;;;;;19.27;22.81;100606.75;5009006;28;20171;-72
2022/03/23 01:57:09;;;;;;;5.20;2.60;;;;;;;19.08;22.82;100603.19;5015283;28;20033;-73
2022/03/23 01:59:36;;;;;;;6.00;3.47;;;;;;;18.96;23.10;100610.63;5048405;28;20138;-73
2022/03/23 02:02:03;;;;;;;7.75;2.65;;;;;;;18.88;23.31;100607.78;5048323;28;20021;-73
2022/03/23 02:04:28;;;;;;;8.70;2.67;;;;;;;18.84;23.13;100601.88;5048580;28;20013;-74
2022/03/23 02:06:54;;;;;;;5.65;2.92;;;;;;;18.80;23.05;100596.97;5046351;28;20119;-74
2022/03/23 02:09:20;;;;;;;8.35;3.00;;;;;;;18.75;23.14;100600.06;5048639;28;20277;-73
2022/03/23 02:11:49;;;;;;;5.57;3.33;;;;;;;18.70;23.24;100595.16;5048092;28;20280;-73
2022/03/23 02:14:15;;;;;;;3.95;2.75;;;;;;;18.67;23.19;100598.16;5048110;28;20017;-71
2022/03/23 02:16:45;;;;;;;6.43;2.72;;;;;;;18.66;23.10;100595.59;5047161;28;20076;-71
2022/03/23 02:19:31;;;;;;;5.82;3.13;;;;;;;18.64;23.08;100587.72;5033013;28;20021;-71
2022/03/23 02:21:57;;;;;;;4.85;3.13;;;;;;;18.61;23.04;100588.84;5035557;28;20021;-72
2022/03/23 02:24:25;;;;;;;4.63;2.78;;;;;;;18.59;23.14;100593.53;5048027;28;20085;-71
2022/03/23 02:26:52;;;;;;;4.78;2.58;;;;;;;18.55;23.25;100594.81;5047087;28;20029;-73
2022/03/23 02:29:37;;;;;;;5.47;2.85;;;;;;;18.49;23.38;100592.72;5013578;28;20097;-72
2022/03/23 02:32:03;;;;;;;5.57;2.72;;;;;;;18.38;23.28;100587.53;5047730;28;20165;-70
2022/03/23 02:34:29;;;;;;;6.72;3.53;;;;;;;18.27;23.42;100592.09;5048126;28;20040;-70
2022/03/23 02:36:55;;;;;;;5.20;2.88;;;;;;;18.20;23.49;100582.94;5048047;28;20084;-72
2022/03/23 02:39:21;;;;;;;5.50;2.78;;;;;;;18.18;23.70;100590.25;5046193;28;20048;-72
2022/03/23 02:41:46;;;;;;;5.65;2.88;;;;;;;18.19;23.53;100583.91;5047585;28;20017;-72
2022/03/23 02:44:16;;;;;;;7.22;3.13;;;;;;;18.19;23.60;100591.94;5046993;28;20033;-71
2022/03/23 02:46:42;;;;;;;6.10;3.10;;;;;;;18.21;23.40;100587.28;5045983;28;20018;-72
2022/03/23 02:49:09;;;;;;;4.72;2.92;;;;;;;18.23;23.48;100589.84;5047952;28;20017;-71
2022/03/23 02:51:35;;;;;;;5.53;3.53;;;;;;;18.23;23.31;100581.81;5046513;28;20036;-74
2022/03/23 03:02:54;;;;;;;6.57;3.50;;;;;;;17.97;23.63;100580.59;4985629;28;20143;-71
2022/03/23 03:05:19;;;;;;;5.97;3.47;;;;;;;17.98;23.75;100579.59;5046580;28;20028;-73
2022/03/23 03:10:30;;;;;;;5.20;3.05;;;;;;;17.93;23.73;100581.84;5047335;28;20092;-73
2022/03/23 03:12:56;;;;;;;7.00;3.53;;;;;;;17.87;23.70;100566.31;5044457;28;20043;-72
2022/03/23 03:15:23;;;;;;;7.35;3.05;;;;;;;17.80;24.02;100573.25;5047305;28;20234;-73
2022/03/23 03:17:49;;;;;;;6.55;3.72;;;;;;;17.75;23.83;100568.34;5025890;28;20085;-73
2022/03/23 03:20:15;;;;;;;4.93;2.95;;;;;;;17.66;23.89;100567.34;5027472;28;20014;-72
2022/03/23 03:22:43;;;;;;;5.95;3.45;;;;;;;17.60;24.54;100559.03;5037175;28;20020;-70
2022/03/23 03:25:13;;;;;;;6.80;3.10;;;;;;;17.56;24.23;100566.53;5047427;28;20013;-72
2022/03/23 03:27:40;;;;;;;5.35;3.28;;;;;;;17.48;24.17;100561.88;5035833;28;20002;-72
2022/03/23 03:30:08;;;;;;;7.03;3.30;;;;;;;17.42;24.36;100562.44;5027597;28;20018;-73
2022/03/23 03:32:34;;;;;;;6.32;3.03;;;;;;;17.38;24.34;100552.97;5033179;28;20012;-70
2022/03/23 03:35:00;;;;;;;4.55;3.10;;;;;;;17.35;24.16;100558.63;5046990;28;20017;-70
2022/03/23 03:37:26;;;;;;;6.45;3.40;;;;;;;17.31;24.17;100562.56;5046245;28;20017;-72
2022/03/23 03:39:51;;;;;;;8.45;3.33;;;;;;;17.28;24.28;100566.34;5047168;28;20032;-71
2022/03/23 03:42:18;;;;;;;4.45;2.95;;;;;;;17.24;24.42;100567.63;5044283;28;20009;-71
2022/03/23 03:44:44;;;;;;;7.05;3.03;;;;;;;17.20;24.50;100560.84;5007659;28;20042;-71
2022/03/23 03:47:10;;;;;;;7.32;3.33;;;;;;;17.19;24.55;100557.34;5020525;28;20029;-71
2022/03/23 03:49:39;;;;;;;6.82;3.40;;;;;;;17.16;24.58;100567.47;5045294;28;20017;-72
2022/03/23 03:52:05;;;;;;;5.72;3.47;;;;;;;17.16;24.31;100562.09;5049547;28;20041;-74
2022/03/23 03:54:31;;;;;;;5.78;3.83;;;;;;;17.17;24.48;100562.00;5049968;28;20024;-73
2022/03/23 03:56:57;;;;;;;8.30;2.95;;;;;;;17.16;24.27;100562.97;5050663;28;20017;-72
2022/03/23 03:59:22;;;;;;;4.90;3.20;;;;;;;17.16;24.63;100565.66;5050799;28;20222;-74
2022/03/23 04:01:49;;;;;;;5.70;3.20;;;;;;;17.16;24.39;100567.47;5048699;28;20064;-70
2022/03/23 04:04:14;;;;;;;10.68;4.07;;;;;;;17.17;24.50;100566.47;5049550;28;20017;-71
2022/03/23 04:06:40;;;;;;;8.90;3.85;;;;;;;17.15;24.70;100555.94;5038680;28;20121;-71
2022/03/23 04:09:05;;;;;;;7.53;3.20;;;;;;;17.18;24.42;100554.81;5011091;28;20037;-73
2022/03/23 04:11:31;;;;;;;5.18;3.25;;;;;;;17.23;24.56;100556.06;5031848;28;20052;-73
2022/03/23 04:13:56;;;;;;;12.13;4.07;;;;;;;17.26;24.45;100551.44;5050421;28;20218;-70
2022/03/23 04:16:22;;;;;;;6.55;3.42;;;;;;;17.31;24.44;100555.38;5050334;28;20036;-73
2022/03/23 04:18:47;;;;;;;7.65;3.30;;;;;;;17.37;24.34;100557.50;5038509;28;20219;-72
2022/03/23 04:21:13;;;;;;;6.47;3.78;;;;;;;17.43;24.10;100544.53;5034493;28;20116;-72
2022/03/23 04:23:39;;;;;;;5.25;3.55;;;;;;;17.46;24.00;100552.28;5050337;28;20076;-71
2022/03/23 04:26:04;;;;;;;7.32;3.92;;;;;;;17.50;24.19;100551.84;5050201;28;20032;-74
2022/03/23 04:28:31;;;;;;;8.50;4.40;;;;;;;17.54;24.17;100549.75;5047590;28;20067;-73
2022/03/23 04:30:56;;;;;;;5.28;3.08;;;;;;;17.58;24.21;100550.31;5050116;28;20031;-72
2022/03/23 04:33:22;;;;;;;5.05;3.45;;;;;;;17.59;24.16;100542.13;5050380;28;20021;-73
2022/03/23 04:35:47;;;;;;;5.00;3.15;;;;;;;17.65;24.20;100546.94;5050053;28;20138;-71
2022/03/23 04:38:13;;;;;;;9.50;3.97;;;;;;;17.68;24.11;100535.94;5048157;28;20227;-72
2022/03/23 04:40:38;;;;;;;7.30;3.70;;;;;;;17.75;23.91;100540.72;5050293;28;20013;-74
2022/03/23 04:43:04;;;;;;;6.07;3.75;;;;;;;17.73;24.13;100530.16;5049916;28;20013;-73
2022/03/23 04:45:30;;;;;;;6.25;3.83;;;;;;;17.80;24.12;100544.63;5049812;28;20215;-71
2022/03/23 04:47:55;;;;;;;5.93;3.17;;;;;;;17.88;24.16;100540.41;5048932;28;20041;-73
2022/03/23 04:50:21;;;;;;;6.25;3.78;;;;;;;17.95;23.74;100537.00;5049804;28;20013;-74
2022/03/23 04:52:47;;;;;;;6.32;3.85;;;;;;;18.04;24.15;100545.19;5040118;28;20251;-72
2022/03/23 04:55:14;;;;;;;5.15;3.47;;;;;;;18.12;23.71;100537.28;5010132;28;20026;-71
2022/03/23 04:57:40;;;;;;;6.35;3.70;;;;;;;18.22;23.75;100538.09;5009953;28;20219;-74
2022/03/23 05:00:10;;;;;;;5.43;3.63;;;;;;;18.25;23.91;100540.50;5010030;28;20085;-71
2022/03/23 05:02:38;;;;;;;4.65;3.08;;;;;;;18.26;23.82;100535.97;5023003;28;20017;-72
2022/03/23 05:05:07;;;;;;;8.52;4.75;;;;;;;18.28;23.75;100532.16;5049741;28;20118;-70
2022/03/23 05:07:34;;;;;;;10.05;4.25;;;;;;;18.34;23.71;100533.41;5048513;28;20025;-72
2022/03/23 05:09:59;;;;;;;6.22;3.75;;;;;;;18.35;23.63;100531.56;5049594;28;20017;-71
2022/03/23 05:12:25;;;;;;;11.77;3.85;;;;;;;18.37;24.01;100532.25;5048382;28;20036;-72
2022/03/23 05:14:50;;;;;;;8.75;3.80;;;;;;;18.37;23.98;100530.44;5048315;28;20025;-74
2022/03/23 05:17:16;;;;;;;6.20;4.03;;;;;;;18.39;23.96;100528.44;5049350;28;20120;-73
2022/03/23 05:19:42;;;;;;;6.40;3.75;;;;;;;18.45;23.96;100529.69;5029979;28;20017;-73
2022/03/23 05:22:08;;;;;;;10.15;3.95;;;;;;;18.45;23.95;100529.69;5037333;28;20021;-74
2022/03/23 05:24:34;;;;;;;10.32;4.00;;;;;;;18.54;23.66;100530.63;5049125;28;20017;-73
2022/03/23 05:26:59;;;;;;;7.03;3.47;;;;;;;18.70;23.80;100524.63;5048145;28;20009;-71
2022/03/23 05:29:25;;;;;;;7.55;4.03;;;;;;;18.91;23.56;100524.34;5047451;28;20234;-71
2022/03/23 05:31:50;;;;;;;6.63;3.92;;;;;;;18.97;23.51;100533.66;5048059;28;20189;-71
2022/03/23 05:34:16;;;;;;;7.85;4.05;;;;;;;18.94;23.44;100531.25;5048649;28;20097;-71
2022/03/23 05:36:42;;;;;;;8.30;3.78;;;;;;;18.80;23.81;100517.38;5048781;28;20048;-72
2022/03/23 05:39:07;;;;;;;7.85;3.95;;;;;;;18.69;23.65;100525.63;5048966;28;20013;-72
2022/03/23 05:41:32;;;;;;;8.93;4.47;;;;;;;18.58;23.94;100523.97;5047414;28;20021;-70
2022/03/23 05:43:58;;;;;;;6.88;4.07;;;;;;;18.53;24.16;100527.13;5048135;28;20018;-72
2022/03/23 05:46:23;;;;;;;5.07;3.40;;;;;;;18.52;24.20;100527.28;5047207;28;20017;-71
2022/03/23 05:48:49;;;;;;;6.97;3.80;;;;;;;18.49;24.42;100528.38;5047488;28;20122;-72
2022/03/23 05:51:15;;;;;;;5.97;3.58;;;;;;;18.44;24.29;100526.16;5048563;28;20025;-71
2022/03/23 05:53:41;;;;;;;7.80;3.50;;;;;;;18.44;24.17;100525.34;5048394;28;20248;-72
2022/03/23 05:56:07;;;;;;;8.55;3.75;;;;;;;18.41;24.37;100530.97;5047437;28;20029;-74
2022/03/23 05:58:34;;;;;;;9.60;4.18;;;;;;;18.39;24.45;100525.75;5045666;28;20146;-72
2022/03/23 06:01:00;;;;;;;10.68;3.90;;;;;;;18.30;24.39;100511.44;5048645;28;20086;-71
2022/03/23 06:03:26;;;;;;;6.00;3.92;;;;;;;18.33;24.54;100514.78;5048497;28;20028;-74
2022/03/23 06:05:52;;;;;;;5.68;3.60;;;;;;;18.33;24.52;100517.47;5048388;28;20242;-72
2022/03/23 06:08:17;;;;;;;12.18;3.88;;;;;;;18.28;24.61;100521.44;5032773;28;20033;-72
2022/03/23 06:10:42;;;;;;;6.72;3.38;;;;;;;18.28;24.63;100516.09;5028372;28;20033;-72
2022/03/23 06:13:09;;;;;;;8.52;3.67;;;;;;;18.24;24.49;100514.69;5028285;28;20254;-69
2022/03/23 06:15:35;;;;;;;10.27;4.05;;;;;;;18.28;24.67;100518.78;5043059;28;20024;-73
2022/03/23 06:18:00;;;;;;;7.18;4.10;;;;;;;18.27;24.80;100517.06;5025007;28;20017;-70
2022/03/23 06:20:26;;;;;;;12.05;4.53;;;;;;;18.27;24.69;100511.72;5028422;28;20099;-70
2022/03/23 06:22:51;;;;;;;13.23;4.70;;;;;;;18.29;24.74;100520.47;5028289;28;20024;-70
2022/03/23 06:25:17;;;;;;;16.30;4.88;;;;;;;18.29;24.73;100515.09;5040112;28;20088;-73
2022/03/23 06:27:42;;;;;;;10.63;3.80;;;;;;;18.29;24.80;100511.56;5041244;28;20032;-70
2022/03/23 06:30:08;;;;;;;8.48;4.47;;;;;;;18.30;24.63;100510.56;5043095;28;20021;-72
2022/03/23 06:32:34;;;;;;;9.45;4.32;;;;;;;18.30;24.76;100510.56;5046997;28;20013;-71
2022/03/23 06:35:00;;;;;;;9.40;4.45;;;;;;;18.32;24.64;100505.91;5047850;28;20135;-73
2022/03/23 06:37:27;;;;;;;10.70;4.38;;;;;;;18.32;24.68;100499.69;5046181;28;20025;-71
2022/03/23 06:39:53;;;;;;;14.27;4.20;;;;;;;18.40;24.68;100511.38;5047000;28;20025;-72
2022/03/23 06:42:18;;;;;;;8.15;3.63;;;;;;;18.41;24.73;100507.69;5046936;28;20041;-74
2022/03/23 06:44:44;;;;;;;13.25;4.32;;;;;;;18.38;24.78;100499.13;5047712;28;20222;-73
2022/03/23 06:47:09;;;;;;;14.45;4.00;;;;;;;18.36;24.59;100510.00;5046775;28;20222;-71
2022/03/23 06:49:35;;;;;;;12.93;4.88;;;;;;;18.36;24.60;100496.59;5047662;28;20032;-73
2022/03/23 06:52:01;;;;;;;9.57;3.95;;;;;;;18.43;24.81;100507.56;5047390;28;20025;-74
2022/03/23 06:54:26;;;;;;;8.48;3.05;;;;;;;18.63;25.03;100502.94;5047471;28;20067;-72
2022/03/23 06:56:52;;;;;;;9.55;4.40;;;;;;;18.88;24.90;100496.03;5047727;28;20222;-74
2022/03/23 06:59:21;;;;;;;7.10;3.78;;;;;;;19.02;24.56;100489.31;5045779;28;20025;-72
2022/03/23 07:01:47;;;;;;;8.73;3.25;;;;;;;19.12;24.60;100491.91;5030427;28;20088;-75
2022/03/23 07:04:12;;;;;;;7.75;3.28;;;;;;;19.22;24.70;100491.84;5046411;28;20040;-73
2022/03/23 07:06:38;;;;;;;4.00;3.08;;;;;;;19.40;24.68;100491.81;5028845;28;20029;-72
2022/03/23 07:11:48;;;;;;;9.10;2.85;;;;;;;19.76;24.61;100483.69;5020869;28;20028;-74
2022/03/23 07:14:13;;;;;;;8.38;3.45;;;;;;;19.92;24.42;100487.53;5046370;28;20052;-75
2022/03/23 07:16:41;;;;;;;7.22;3.38;;;;;;;19.99;24.16;100482.34;5047264;28;20029;-73
2022/03/23 07:19:07;;;;;;;6.47;2.92;;;;;;;19.92;24.17;100488.34;5032779;28;20037;-73
2022/03/23 07:21:32;;;;;;;8.57;4.55;;;;;;;19.89;24.46;100485.16;5032846;28;20033;-73
2022/03/23 07:23:58;;;;;;;11.48;3.85;;;;;;;19.93;24.18;100486.50;5046373;28;20227;-74
2022/03/23 07:26:23;;;;;;;11.60;3.75;;;;;;;19.93;24.48;100478.44;5049770;28;20060;-74
2022/03/23 07:28:49;;;;;;;5.15;3.28;;;;;;;19.88;24.17;100481.59;5036182;28;20081;-74
2022/03/23 07:31:15;;;;;;;12.38;3.63;;;;;;;19.81;24.03;100478.69;5031345;28;20068;-73
2022/03/23 07:33:40;;;;;;;13.82;3.90;;;;;;;19.74;23.98;100472.28;5049230;28;20037;-73
2022/03/23 07:36:06;;;;;;;9.88;4.45;;;;;;;19.67;24.25;100469.38;5051141;28;20060;-72
2022/03/23 07:38:32;;;;;;;5.90;3.00;;;;;;;19.63;24.05;100468.00;5051385;28;20370;-71
2022/03/23 07:40:57;;;;;;;12.45;3.58;;;;;;;19.60;23.97;100468.31;5051024;28;20165;-71
2022/03/23 07:43:23;;;;;;;8.75;3.63;;;;;;;19.59;24.09;100468.47;5050157;28;20033;-72
2022/03/23 07:45:48;;;;;;;8.82;3.47;;;;;;;19.58;24.16;100466.78;5050878;28;20029;-72
2022/03/23 07:48:16;;;;;;;8.60;3.30;;;;;;;19.59;24.12;100471.16;5050992;28;20219;-72
2022/03/23 07:50:42;;;;;;;11.13;3.78;;;;;;;19.57;24.01;100462.41;5051208;28;20130;-73
2022/03/23 07:53:07;;;;;;;10.35;3.45;;;;;;;19.57;23.85;100468.63;5027038;28;20049;-74
2022/03/23 07:55:33;;;;;;;7.82;3.38;;;;;;;19.58;23.84;100469.47;5028702;28;20033;-73
2022/03/23 07:57:58;;;;;;;7.18;2.78;;;;;;;19.56;23.76;100461.56;5039602;28;20025;-73
2022/03/23 08:00:24;;;;;;;13.07;3.53;;;;;;;19.51;23.86;100464.72;5050802;28;20025;-72
2022/03/23 08:02:50;;;;;;;5.70;2.80;;;;;;;19.50;23.83;100456.84;5050630;28;20093;-71
2022/03/23 08:05:16;;;;;;;5.07;3.25;;;;;;;19.49;23.81;100447.94;5050646;28;20025;-73
2022/03/23 08:07:41;;;;;;;9.93;2.72;;;;;;;19.46;23.80;100450.94;5048906;28;20053;-73
2022/03/23 08:10:07;;;;;;;4.32;2.53;;;;;;;19.46;23.99;100445.56;5048914;28;20230;-69
2022/03/23 08:12:34;;;;;;;8.68;2.75;;;;;;;19.45;23.95;100437.66;5010948;28;20029;-71
2022/03/23 08:14:59;;;;;;;6.95;2.53;;;;;;;19.45;23.90;100438.53;5011043;28;20014;-74
2022/03/23 08:17:25;;;;;;;6.68;3.42;;;;;;;19.45;23.69;100437.66;5029488;28;20174;-72
2022/03/23 08:20:32;;;;;;;11.10;2.85;;;;;;;19.45;23.73;100432.28;5033831;28;20023;-71
2022/03/23 08:22:36;;;;;;;5.10;2.78;;;;;;;19.44;23.85;100435.97;5050157;28;20044;-72
2022/03/23 08:25:02;;;;;;;5.03;2.85;;;;;;;19.43;23.76;100439.66;5050290;28;20017;-71
2022/03/23 08:27:28;;;;;;;10.60;3.15;;;;;;;19.43;24.01;100429.78;5041436;28;20041;-73
2022/03/23 08:29:53;;;;;;;6.35;2.45;;;;;;;19.49;23.91;100437.19;5010693;28;20223;-71
2022/03/23 08:32:19;;;;;;;6.35;3.00;;;;;;;19.49;23.78;100422.94;5010677;28;20037;-73
2022/03/23 08:34:44;;;;;;;4.28;2.63;;;;;;;19.50;23.95;100425.44;5010436;28;20022;-72
2022/03/23 08:37:09;;;;;;;4.85;2.10;;;;;;;19.51;23.79;100427.13;5025459;28;20037;-71
2022/03/23 08:39:35;;;;;;;7.70;3.10;;;;;;;19.54;23.82;100419.78;5050002;28;20029;-71
2022/03/23 08:42:01;;;;;;;4.35;2.58;;;;;;;19.57;23.56;100419.47;5049748;28;20060;-72
2022/03/23 08:44:26;;;;;;;6.50;2.58;;;;;;;19.56;23.66;100407.03;5049756;28;20138;-72
2022/03/23 08:46:51;;;;;;;5.63;2.78;;;;;;;19.58;23.65;100421.97;5049336;28;20025;-72
2022/03/23 08:49:17;;;;;;;5.07;2.45;;;;;;;19.58;23.49;100407.72;5049810;28;20032;-70
2022/03/23 08:51:42;;;;;;;5.00;2.97;;;;;;;19.59;23.47;100407.56;5048672;28;20146;-72
2022/03/23 08:54:08;;;;;;;4.35;2.97;;;;;;;19.61;23.54;100404.75;5048634;28;20037;-71
2022/03/23 08:56:33;;;;;;;6.20;2.85;;;;;;;19.61;23.48;100405.56;5049590;28;20025;-72
2022/03/23 08:58:59;;;;;;;5.00;2.47;;;;;;;19.56;23.35;100407.88;5048745;28;20044;-70
2022/03/23 09:01:24;;;;;;;10.02;2.15;;;;;;;19.52;23.25;100404.66;5045249;28;20044;-71
2022/03/23 09:03:50;;;;;;;4.32;2.50;;;;;;;19.45;23.10;100400.94;5028775;28;20021;-71
2022/03/23 09:06:16;;;;;;;9.23;2.58;;;;;;;19.42;23.15;100395.91;5041922;28;20029;-72
2022/03/23 09:08:41;;;;;;;4.00;2.72;;;;;;;19.46;23.35;100399.09;5037506;28;20037;-72
2022/03/23 09:11:07;;;;;;;3.45;2.42;;;;;;;19.43;23.29;100388.66;5044265;28;20030;-72
2022/03/23 09:13:33;;;;;;;4.53;3.42;;;;;;;19.45;23.27;100392.91;5021059;28;20045;-70
2022/03/23 09:15:59;;;;;;;5.20;2.28;;;;;;;19.46;23.45;100389.22;5003700;28;20026;-70
2022/03/23 09:18:28;;;;;;;6.45;2.70;;;;;;;19.48;23.09;100381.81;5031388;28;20033;-70
2022/03/23 09:20:55;;;;;;;6.20;2.40;;;;;;;19.53;23.39;100381.38;5045288;28;20025;-73
2022/03/23 09:23:21;;;;;;;5.85;2.78;;;;;;;19.51;23.22;100381.50;5045517;28;20100;-74
2022/03/23 09:25:49;;;;;;;6.20;2.40;;;;;;;19.52;23.24;100380.50;5048285;28;20187;-72
2022/03/23 09:28:14;;;;;;;5.75;2.53;;;;;;;19.58;23.36;100378.19;5042046;28;20025;-73
2022/03/23 09:30:40;;;;;;;5.10;2.40;;;;;;;19.61;23.30;100375.22;5042141;28;20101;-73
2022/03/23 09:33:06;;;;;;;4.90;2.67;;;;;;;19.61;23.19;100367.97;5020751;28;20022;-71
2022/03/23 09:35:31;;;;;;;4.90;2.60;;;;;;;19.62;23.25;100358.09;5025872;28;20094;-72
2022/03/23 09:37:59;;;;;;;5.53;3.20;;;;;;;19.64;23.37;100354.25;5045768;28;20021;-72
2022/03/23 09:40:30;;;;;;;5.95;2.72;;;;;;;19.65;23.43;100363.97;5048887;28;20021;-72
2022/03/23 09:42:57;;;;;;;5.38;2.95;;;;;;;19.68;23.38;100370.88;5045359;28;20029;-72
2022/03/23 09:45:46;;;;;;;6.05;2.83;;;;;;;19.67;23.35;100364.66;5043334;28;20048;-71
2022/03/23 09:48:14;;;;;;;6.15;2.90;;;;;;;19.67;23.46;100351.25;5029694;28;20021;-72
2022/03/23 09:50:43;;;;;;;6.25;2.67;;;;;;;19.68;23.35;100349.38;5030115;28;20022;-72
2022/03/23 09:53:09;;;;;;;6.78;3.17;;;;;;;19.71;23.42;100350.91;5028093;28;20117;-72
2022/03/23 09:55:36;;;;;;;7.22;4.00;;;;;;;19.67;23.17;100345.03;5020114;28;20226;-71
2022/03/23 09:58:04;;;;;;;4.65;2.70;;;;;;;19.64;23.48;100339.97;5044184;28;20250;-74
2022/03/23 10:00:37;;;;;;;7.43;3.40;;;;;;;19.61;23.36;100332.25;5047611;28;20025;-75
2022/03/23 10:03:12;;;;;;;9.38;3.42;;;;;;;19.60;23.38;100327.88;5014775;28;20178;-75
2022/03/23 10:06:09;;;;;;;5.43;3.05;;;;;;;19.56;23.19;100332.72;5047544;28;20096;-72
2022/03/23 10:09:06;;;;;;;7.25;3.00;;;;;;;19.56;23.40;100326.53;5039226;28;20024;-77
2022/03/23 10:11:43;;;;;;;5.63;2.75;;;;;;;19.60;23.68;100314.47;5045213;28;20159;-71
2022/03/23 10:14:44;;;;;;;8.50;3.13;;;;;;;19.67;23.56;100310.97;5032947;28;20017;-71
2022/03/23 10:17:44;;;;;;;9.10;3.60;;;;;;;19.74;23.58;100297.75;5020771;28;20056;-71
2022/03/23 10:20:13;;;;;;;5.97;2.88;;;;;;;19.78;23.35;100307.13;5017792;28;20357;-70
2022/03/23 10:22:46;;;;;;;6.03;3.10;;;;;;;19.82;23.38;100303.13;5034025;28;20092;-70
2022/03/23 10:25:13;;;;;;;7.53;3.38;;;;;;;19.85;23.17;100296.63;5021574;28;20037;-69
2022/03/23 10:27:38;;;;;;;5.35;2.78;;;;;;;19.90;23.21;100296.16;5033529;28;20084;-71
2022/03/23 10:30:06;;;;;;;5.63;2.95;;;;;;;19.95;23.26;100291.09;5047047;28;20253;-71
2022/03/23 10:32:37;;;;;;;6.00;3.35;;;;;;;20.02;23.36;100292.16;5047688;28;20025;-72
2022/03/23 10:35:04;;;;;;;8.18;3.55;;;;;;;20.03;23.06;100274.16;5032906;28;20036;-70
2022/03/23 10:37:33;;;;;;;10.45;3.13;;;;;;;20.09;23.24;100290.47;5034558;28;20029;-73
2022/03/23 10:40:02;;;;;;;4.47;2.70;;;;;;;20.09;23.37;100278.91;5034241;28;20251;-73
2022/03/23 10:42:32;;;;;;;6.68;3.17;;;;;;;20.10;22.79;100284.09;5013750;28;20036;-72
2022/03/23 10:45:11;;;;;;;6.82;2.83;;;;;;;20.08;23.11;100269.97;5041607;28;20025;-73
2022/03/23 10:47:39;;;;;;;9.77;2.90;;;;;;;20.10;22.87;100273.34;5028608;28;20018;-71
2022/03/23 10:50:08;;;;;;;6.93;3.00;;;;;;;20.15;23.25;100261.28;5036572;28;20025;-70
2022/03/23 10:52:34;;;;;;;8.10;2.63;;;;;;;20.19;22.98;100258.09;5033120;28;20092;-70
2022/03/23 10:55:01;;;;;;;5.40;3.60;;;;;;;20.18;22.89;100252.88;5037565;28;20025;-71
2022/03/23 10:57:56;;;;;;;7.90;2.88;;;;;;;20.16;22.54;100246.84;5024234;28;20048;-72
2022/03/23 11:00:38;;;;;;;7.40;2.88;;;;;;;20.11;22.55;100241.97;5007893;28;20038;-72
2022/03/23 11:03:06;;;;;;;7.97;2.60;;;;;;;20.08;22.49;100240.44;5016780;28;20013;-71
2022/03/23 11:05:41;;;;;;;4.05;2.90;;;;;;;20.09;22.20;100235.91;5022014;28;20076;-71
2022/03/23 11:08:10;;;;;;;7.00;3.17;;;;;;;20.08;22.50;100231.53;5019674;28;20086;-71
2022/03/23 11:16:12;;;;;;;3.45;2.40;;;;;;;20.20;22.43;100224.00;5017299;28;20090;-70
2022/03/23 11:18:38;;;;;;;9.63;2.38;;;;;;;20.24;22.59;100218.13;5031818;28;20158;-69
2022/03/23 11:21:04;;;;;;;7.43;2.75;;;;;;;20.25;22.69;100213.56;5043769;28;20021;-69
2022/03/23 11:23:36;;;;;;;3.25;2.13;;;;;;;20.30;22.73;100210.38;5010197;28;20045;-70
2022/03/23 11:26:07;;;;;;;5.15;2.60;;;;;;;20.29;22.50;100214.94;5042301;28;20049;-69
2022/03/23 11:28:38;;;;;;;5.43;2.35;;;;;;;20.30;23.02;100205.00;5025840;28;20244;-71
2022/03/23 11:31:06;;;;;;;6.03;2.58;;;;;;;20.36;23.00;100210.59;5037964;28;20029;-69
2022/03/23 11:33:35;;;;;;;6.05;2.08;;;;;;;20.45;23.06;100207.88;5043114;28;20021;-70
2022/03/23 11:36:03;;;;;;;6.68;2.45;;;;;;;20.48;22.49;100202.16;5047008;28;20264;-71
2022/03/23 11:38:30;;;;;;;7.25;2.92;;;;;;;20.45;22.47;100202.50;5047128;28;20030;-72
2022/03/23 11:40:57;;;;;;;5.40;2.65;;;;;;;20.41;22.11;100202.00;5047358;28;20028;-70
2022/03/23 11:43:25;;;;;;;7.22;2.25;;;;;;;20.36;22.06;100189.06;5046576;28;20162;-70
2022/03/23 11:45:52;;;;;;;5.88;2.00;;;;;;;20.35;22.11;100197.28;5045402;28;20237;-71